createdAt,value
2023-03-04T00:01:10.584Z,99.90
2023-03-04T00:03:38.473Z,99.90
2023-03-04T00:06:06.678Z,99.90
2023-03-04T00:08:34.761Z,99.90
2023-03-04T00:11:02.655Z,99.90
2023-03-04T00:13:30.659Z,99.90
2023-03-04T00:15:58.546Z,99.90
2023-03-04T00:18:28.842Z,99.90
2023-03-04T00:20:56.932Z,99.90
2023-03-04T00:23:24.841Z,99.90
2023-03-04T00:25:52.680Z,99.90
2023-03-04T00:28:20.901Z,99.90
2023-03-04T00:30:48.773Z,99.90
2023-03-04T00:33:16.965Z,99.90
2023-03-04T00:35:44.889Z,99.90
2023-03-04T00:38:12.835Z,99.90
2023-03-04T00:40:40.844Z,99.90
2023-03-04T00:43:08.844Z,99.90
2023-03-04T00:45:36.833Z,99.90
2023-03-04T00:48:04.983Z,99.90
2023-03-04T00:50:33.024Z,99.90
2023-03-04T00:53:02.110Z,99.90
2023-03-04T00:55:30.062Z,99.90
2023-03-04T00:57:58.073Z,99.90
2023-03-04T01:00:25.965Z,99.90
2023-03-04T01:02:53.983Z,99.90
2023-03-04T01:05:21.854Z,99.90
2023-03-04T01:07:49.825Z,99.90
2023-03-04T01:10:17.831Z,99.90
2023-03-04T01:12:45.975Z,99.90
2023-03-04T01:15:14.839Z,99.90
2023-03-04T01:17:42.905Z,99.90
2023-03-04T01:20:11.236Z,99.90
2023-03-04T01:22:39.232Z,99.90
2023-03-04T01:25:07.580Z,99.90
2023-03-04T01:27:35.548Z,99.90
2023-03-04T01:30:03.784Z,99.90
2023-03-04T01:32:31.605Z,99.90
2023-03-04T01:34:59.523Z,99.90
2023-03-04T01:37:27.521Z,99.90
2023-03-04T01:39:55.523Z,99.90
2023-03-04T01:42:24.264Z,99.90
2023-03-04T01:44:52.749Z,99.90
2023-03-04T01:47:22.676Z,99.90
2023-03-04T01:49:53.540Z,99.90
2023-03-04T01:52:21.419Z,99.90
2023-03-04T01:54:49.598Z,99.90
2023-03-04T01:57:18.816Z,99.90
2023-03-04T01:59:47.451Z,99.90
2023-03-04T02:02:15.562Z,99.90
2023-03-04T02:04:43.488Z,99.90
2023-03-04T02:07:11.408Z,99.90
2023-03-04T02:09:39.487Z,99.90
2023-03-04T02:12:07.510Z,99.90
2023-03-04T02:14:35.408Z,99.90
2023-03-04T02:17:04.379Z,99.90
2023-03-04T02:19:32.263Z,99.90
2023-03-04T02:22:00.132Z,99.90
2023-03-04T02:24:48.283Z,99.90
2023-03-04T02:27:16.122Z,99.90
2023-03-04T02:29:44.108Z,99.90
2023-03-04T02:32:13.519Z,99.90
2023-03-04T02:34:46.371Z,99.90
2023-03-04T02:37:15.271Z,99.90
2023-03-04T02:39:45.215Z,99.90
2023-03-04T02:42:13.723Z,99.90
2023-03-04T02:44:46.797Z,99.90
2023-03-04T02:47:18.637Z,99.90
2023-03-04T02:49:46.955Z,99.90
2023-03-04T02:52:19.962Z,99.90
2023-03-04T02:54:48.162Z,99.90
2023-03-04T02:57:17.214Z,99.90
2023-03-04T02:59:49.012Z,99.90
2023-03-04T03:02:21.205Z,99.90
2023-03-04T03:04:52.239Z,99.90
2023-03-04T03:07:21.943Z,99.90
2023-03-04T03:09:51.301Z,99.90
2023-03-04T03:12:20.039Z,99.90
2023-03-04T03:14:47.967Z,99.90
2023-03-04T03:17:19.374Z,99.90
2023-03-04T03:19:48.303Z,99.90
2023-03-04T03:22:16.796Z,99.90
2023-03-04T03:24:44.833Z,99.90
2023-03-04T03:27:12.767Z,99.90
2023-03-04T03:29:40.766Z,99.90
2023-03-04T03:32:09.305Z,99.90
2023-03-04T03:34:37.278Z,99.90
2023-03-04T03:37:05.244Z,99.90
2023-03-04T03:39:33.124Z,99.90
2023-03-04T03:42:01.059Z,99.90
2023-03-04T03:44:29.295Z,99.90
2023-03-04T03:46:57.310Z,99.90
2023-03-04T03:49:25.182Z,99.90
2023-03-04T03:51:53.130Z,99.90
2023-03-04T03:54:21.233Z,99.90
2023-03-04T03:56:49.182Z,99.90
2023-03-04T03:59:17.225Z,99.90
2023-03-04T04:01:45.173Z,99.90
2023-03-04T04:04:13.069Z,99.90
2023-03-04T04:06:41.121Z,99.90
2023-03-04T04:09:09.074Z,99.90
2023-03-04T04:11:36.989Z,99.90
2023-03-04T04:14:05.125Z,99.90
2023-03-04T04:16:33.016Z,99.90
2023-03-04T04:19:04.144Z,99.90
2023-03-04T04:21:31.966Z,99.90
2023-03-04T04:23:59.966Z,99.90
2023-03-04T04:26:27.839Z,99.90
2023-03-04T04:28:55.662Z,99.90
2023-03-04T04:31:23.605Z,99.90
2023-03-04T04:33:51.600Z,99.90
2023-03-04T04:36:19.704Z,99.90
2023-03-04T04:38:49.653Z,99.90
2023-03-04T04:41:20.400Z,99.90
2023-03-04T04:43:48.398Z,99.90
2023-03-04T04:46:17.012Z,99.90
2023-03-04T04:48:45.507Z,99.90
2023-03-04T04:51:13.549Z,99.90
2023-03-04T04:53:41.497Z,99.90
2023-03-04T04:56:10.820Z,99.90
2023-03-04T04:58:38.740Z,99.90
2023-03-04T05:01:07.154Z,99.90
2023-03-04T05:03:35.739Z,99.90
2023-03-04T05:06:04.744Z,99.90
2023-03-04T05:08:32.658Z,99.90
2023-03-04T05:11:00.988Z,99.90
2023-03-04T05:13:29.116Z,99.90
2023-03-04T05:15:57.366Z,99.90
2023-03-04T05:18:26.176Z,99.90
2023-03-04T05:20:55.144Z,99.90
2023-03-04T05:23:23.110Z,99.90
2023-03-04T05:25:51.060Z,99.90
2023-03-04T05:28:19.466Z,99.90
2023-03-04T05:30:48.206Z,99.90
2023-03-04T05:33:17.322Z,99.90
2023-03-04T05:35:46.407Z,99.90
2023-03-04T05:38:15.322Z,99.90
2023-03-04T05:40:44.256Z,99.90
2023-03-04T05:43:12.572Z,99.90
2023-03-04T05:45:40.835Z,99.90
2023-03-04T05:48:08.871Z,99.90
2023-03-04T05:50:36.793Z,99.90
2023-03-04T05:53:04.776Z,99.90
2023-03-04T05:55:32.724Z,99.90
2023-03-04T05:58:00.655Z,99.90
2023-03-04T06:00:28.607Z,99.90
2023-03-04T06:02:56.631Z,99.90
2023-03-04T06:05:24.883Z,99.90
2023-03-04T06:07:52.754Z,99.90
2023-03-04T06:10:20.950Z,99.90
2023-03-04T06:12:48.821Z,99.90
2023-03-04T06:15:16.784Z,99.90
2023-03-04T06:17:44.594Z,99.90
2023-03-04T06:20:12.748Z,99.90
2023-03-04T06:22:40.845Z,99.90
2023-03-04T06:25:08.930Z,99.90
2023-03-04T06:27:36.926Z,99.90
2023-03-04T06:30:05.237Z,99.90
2023-03-04T06:32:33.486Z,99.90
2023-03-04T06:35:01.344Z,99.90
2023-03-04T06:37:29.309Z,99.90
2023-03-04T06:39:57.839Z,99.90
2023-03-04T06:42:25.796Z,99.90
2023-03-04T06:44:53.683Z,99.90
2023-03-04T06:47:21.932Z,99.90
2023-03-04T06:49:49.843Z,99.90
2023-03-04T06:52:17.686Z,99.90
2023-03-04T06:54:45.835Z,99.90
2023-03-04T06:57:14.017Z,99.90
2023-03-04T06:59:41.930Z,99.90
2023-03-04T07:02:11.745Z,99.90
2023-03-04T07:04:39.692Z,99.90
2023-03-04T07:07:07.565Z,99.90
2023-03-04T07:09:35.520Z,99.90
2023-03-04T07:12:03.815Z,99.90
2023-03-04T07:14:31.752Z,99.90
2023-03-04T07:16:59.718Z,99.90
2023-03-04T07:19:30.161Z,99.90
2023-03-04T07:21:58.084Z,99.90
2023-03-04T07:24:25.999Z,99.90
2023-03-04T07:26:54.054Z,99.90
2023-03-04T07:29:21.993Z,99.90
2023-03-04T07:31:52.328Z,99.90
2023-03-04T07:34:21.603Z,99.90
2023-03-04T07:36:49.430Z,99.90
2023-03-04T07:39:17.385Z,99.90
2023-03-04T07:41:45.280Z,98.00
2023-03-04T07:44:14.232Z,96.30
2023-03-04T07:46:42.209Z,95.50
2023-03-04T07:49:12.278Z,95.30
2023-03-04T07:51:40.292Z,95.60
2023-03-04T07:54:08.285Z,95.20
2023-03-04T07:56:36.607Z,95.40
2023-03-04T07:59:04.635Z,94.80
2023-03-04T08:01:34.776Z,94.80
2023-03-04T08:04:03.669Z,94.80
2023-03-04T08:06:32.167Z,94.40
2023-03-04T08:09:01.378Z,93.80
2023-03-04T08:11:30.402Z,92.40
2023-03-04T08:13:58.831Z,91.90
2023-03-04T08:16:27.084Z,92.40
2023-03-04T08:18:59.587Z,92.60
2023-03-04T08:21:28.141Z,93.00
2023-03-04T08:23:57.760Z,93.10
2023-03-04T08:26:27.741Z,92.40
2023-03-04T08:28:56.752Z,92.50
2023-03-04T08:31:25.062Z,91.90
2023-03-04T08:33:53.267Z,92.30
2023-03-04T08:36:21.372Z,91.30
2023-03-04T08:38:49.275Z,91.20
2023-03-04T08:41:17.348Z,89.30
2023-03-04T08:43:46.106Z,86.80
2023-03-04T08:46:14.254Z,85.60
2023-03-04T08:48:42.414Z,85.50
2023-03-04T08:51:12.010Z,84.80
2023-03-04T08:53:40.262Z,85.10
2023-03-04T08:56:08.812Z,86.80
2023-03-04T08:58:36.752Z,88.00
2023-03-04T09:01:05.306Z,88.20
2023-03-04T09:03:33.325Z,88.10
2023-03-04T09:06:02.474Z,88.10
2023-03-04T09:08:30.749Z,86.90
2023-03-04T09:10:58.697Z,81.70
2023-03-04T09:13:28.588Z,74.50
2023-03-04T09:15:56.671Z,70.80
2023-03-04T09:18:25.153Z,69.60
2023-03-04T09:20:53.230Z,70.60
2023-03-04T09:23:21.821Z,72.70
2023-03-04T09:25:50.224Z,75.10
2023-03-04T09:28:18.627Z,76.30
2023-03-04T09:30:49.671Z,78.10
2023-03-04T09:33:18.056Z,79.20
2023-03-04T09:35:46.198Z,80.30
2023-03-04T09:38:14.168Z,80.80
2023-03-04T09:40:48.621Z,80.80
2023-03-04T09:43:24.311Z,81.00
2023-03-04T09:45:54.049Z,80.50
2023-03-04T09:48:22.900Z,79.90
2023-03-04T09:51:00.735Z,79.90
2023-03-04T09:53:37.723Z,80.00
2023-03-04T09:56:06.823Z,79.90
2023-03-04T09:59:00.597Z,77.70
2023-03-04T10:01:37.140Z,76.80
2023-03-04T10:04:08.345Z,77.20
2023-03-04T10:06:37.364Z,76.70
2023-03-04T10:09:11.099Z,75.90
2023-03-04T10:11:46.967Z,74.40
2023-03-04T10:14:28.293Z,70.70
2023-03-04T10:17:02.339Z,63.90
2023-03-04T10:19:36.509Z,59.50
2023-03-04T10:22:16.229Z,59.80
2023-03-04T10:24:47.506Z,59.10
2023-03-04T10:27:17.357Z,55.40
2023-03-04T10:29:47.996Z,55.00
2023-03-04T10:32:18.261Z,57.30
2023-03-04T10:34:46.331Z,58.90
2023-03-04T10:37:14.913Z,61.30
2023-03-04T10:39:44.463Z,62.70
2023-03-04T10:42:15.682Z,64.20
2023-03-04T10:44:51.569Z,66.10
2023-03-04T10:47:19.635Z,57.80
2023-03-04T10:49:54.941Z,55.70
2023-03-04T10:52:29.866Z,54.10
2023-03-04T10:54:59.612Z,52.10
2023-03-04T10:57:35.291Z,53.10
2023-03-04T11:00:18.563Z,51.00
2023-03-04T11:02:47.347Z,48.70
2023-03-04T11:05:15.665Z,45.40
2023-03-04T11:07:54.988Z,45.90
2023-03-04T11:10:36.449Z,46.70
2023-03-04T11:13:17.403Z,45.70
2023-03-04T11:15:50.221Z,44.00
2023-03-04T11:18:20.611Z,49.00
2023-03-04T11:20:50.116Z,47.70
2023-03-04T11:23:20.254Z,47.30
2023-03-04T11:25:51.355Z,51.50
2023-03-04T11:28:19.238Z,50.30
2023-03-04T11:30:59.562Z,47.10
2023-03-04T11:33:43.461Z,46.70
2023-03-04T11:36:30.482Z,47.00
2023-03-04T11:38:58.690Z,49.00
2023-03-04T11:41:26.766Z,50.90
2023-03-04T11:43:54.622Z,47.10
2023-03-04T11:46:37.538Z,47.50
2023-03-04T11:49:24.561Z,52.30
2023-03-04T11:52:00.840Z,46.50
2023-03-04T11:54:43.288Z,45.60
2023-03-04T11:57:30.158Z,46.30
2023-03-04T12:00:18.493Z,44.50
2023-03-04T12:03:02.834Z,44.60
2023-03-04T12:05:55.261Z,49.80
2023-03-04T12:08:26.351Z,45.40
2023-03-04T12:11:11.784Z,46.60
2023-03-04T12:14:12.291Z,51.20
2023-03-04T12:16:40.362Z,49.10
2023-03-04T12:19:17.358Z,47.20
2023-03-04T12:21:59.967Z,52.20
2023-03-04T12:24:40.539Z,51.50
2023-03-04T12:27:31.855Z,46.20
2023-03-04T12:30:05.922Z,50.80
2023-03-04T12:32:37.113Z,50.40
2023-03-04T12:35:14.343Z,50.30
2023-03-04T12:37:42.271Z,47.10
2023-03-04T12:40:29.135Z,52.90
2023-03-04T12:43:01.132Z,53.60
2023-03-04T12:45:47.294Z,50.40
2023-03-04T12:48:15.303Z,47.90
2023-03-04T12:50:52.905Z,52.60
2023-03-04T12:53:27.156Z,53.50
2023-03-04T12:55:55.761Z,50.50
2023-03-04T12:58:31.371Z,47.60
2023-03-04T13:01:19.084Z,50.50
2023-03-04T13:03:47.193Z,51.30
2023-03-04T13:06:15.168Z,47.70
2023-03-04T13:08:43.099Z,48.40
2023-03-04T13:11:34.107Z,52.40
2023-03-04T13:14:03.575Z,54.00
2023-03-04T13:16:33.187Z,55.00
2023-03-04T13:19:01.286Z,51.40
2023-03-04T13:21:31.946Z,51.90
2023-03-04T13:24:19.884Z,54.60
2023-03-04T13:26:47.830Z,55.60
2023-03-04T13:29:18.677Z,56.30
2023-03-04T13:32:00.222Z,57.60
2023-03-04T13:34:46.820Z,56.30
2023-03-04T13:37:41.075Z,58.20
2023-03-04T13:40:29.239Z,58.10
2023-03-04T13:43:19.596Z,58.80
2023-03-04T13:45:47.577Z,58.70
2023-03-04T13:48:27.776Z,59.10
2023-03-04T13:50:55.847Z,59.90
2023-03-04T13:53:40.792Z,59.30
2023-03-04T13:56:29.203Z,60.20
2023-03-04T13:59:05.959Z,59.90
2023-03-04T14:01:35.528Z,61.10
2023-03-04T14:04:20.433Z,61.30
2023-03-04T14:06:49.425Z,62.20
2023-03-04T14:09:21.126Z,62.70
2023-03-04T14:11:49.832Z,62.20
2023-03-04T14:14:21.063Z,63.10
2023-03-04T14:16:54.100Z,63.00
2023-03-04T14:19:25.093Z,62.90
2023-03-04T14:21:53.402Z,63.50
2023-03-04T14:24:21.890Z,60.20
2023-03-04T14:27:08.176Z,58.00
2023-03-04T14:29:36.124Z,61.00
2023-03-04T14:32:05.426Z,60.70
2023-03-04T14:34:36.734Z,61.10
2023-03-04T14:37:17.192Z,62.10
2023-03-04T14:39:53.041Z,63.10
2023-03-04T14:42:22.618Z,63.80
2023-03-04T14:44:51.375Z,64.40
2023-03-04T14:47:26.731Z,65.10
2023-03-04T14:49:55.183Z,65.50
2023-03-04T14:52:32.628Z,65.90
2023-03-04T14:55:02.407Z,66.70
2023-03-04T14:57:32.762Z,67.40
2023-03-04T15:00:16.129Z,67.20
2023-03-04T15:02:44.677Z,67.60
2023-03-04T15:05:25.927Z,68.50
2023-03-04T15:07:55.871Z,68.70
2023-03-04T15:10:26.067Z,69.00
2023-03-04T15:12:58.936Z,69.30
2023-03-04T15:15:34.975Z,69.50
2023-03-04T15:18:13.119Z,69.70
2023-03-04T15:20:41.122Z,70.40
2023-03-04T15:23:10.358Z,71.10
2023-03-04T15:25:38.672Z,71.60
2023-03-04T15:28:12.904Z,71.70
2023-03-04T15:30:41.271Z,72.80
2023-03-04T15:33:12.873Z,73.00
2023-03-04T15:35:42.087Z,74.00
2023-03-04T15:38:12.852Z,74.00
2023-03-04T15:40:43.442Z,74.40
2023-03-04T15:43:14.466Z,75.30
2023-03-04T15:45:42.687Z,75.30
2023-03-04T15:48:11.990Z,75.90
2023-03-04T15:50:48.708Z,76.20
2023-03-04T15:53:35.424Z,76.60
2023-03-04T15:56:04.486Z,77.30
2023-03-04T15:58:35.017Z,77.10
2023-03-04T16:01:03.388Z,77.70
2023-03-04T16:03:31.538Z,78.20
2023-03-04T16:05:59.682Z,78.30
2023-03-04T16:08:27.646Z,78.80
2023-03-04T16:10:55.557Z,78.90
2023-03-04T16:13:24.302Z,79.30
2023-03-04T16:15:52.757Z,80.00
2023-03-04T16:18:20.797Z,80.20
2023-03-04T16:20:50.214Z,80.40
2023-03-04T16:23:22.747Z,80.90
2023-03-04T16:25:52.391Z,81.40
2023-03-04T16:28:20.528Z,81.40
2023-03-04T16:30:48.968Z,82.00
2023-03-04T16:33:17.101Z,82.30
2023-03-04T16:35:48.346Z,82.40
2023-03-04T16:38:22.484Z,82.60
2023-03-04T16:40:50.511Z,82.80
2023-03-04T16:43:18.497Z,83.20
2023-03-04T16:45:48.760Z,83.40
2023-03-04T16:48:17.258Z,83.50
2023-03-04T16:50:45.368Z,83.60
2023-03-04T16:53:39.882Z,84.30
2023-03-04T16:56:12.499Z,84.30
2023-03-04T16:58:40.712Z,84.50
2023-03-04T17:01:14.774Z,84.80
2023-03-04T17:03:42.927Z,85.00
2023-03-04T17:06:11.436Z,85.30
2023-03-04T17:08:39.415Z,85.30
2023-03-04T17:11:07.673Z,85.60
2023-03-04T17:13:35.575Z,85.90
2023-03-04T17:16:04.077Z,86.00
2023-03-04T17:18:32.287Z,86.10
2023-03-04T17:21:07.088Z,86.50
2023-03-04T17:23:38.231Z,87.10
2023-03-04T17:26:06.470Z,86.80
2023-03-04T17:28:34.383Z,87.10
2023-03-04T17:31:09.081Z,87.10
2023-03-04T17:33:37.362Z,87.20
2023-03-04T17:36:05.404Z,87.50
2023-03-04T17:38:33.913Z,87.90
2023-03-04T17:41:06.318Z,87.60
2023-03-04T17:43:34.573Z,88.20
2023-03-04T17:46:04.783Z,88.20
2023-03-04T17:48:32.980Z,88.80
2023-03-04T17:51:00.936Z,88.70
2023-03-04T17:53:29.000Z,88.90
2023-03-04T17:56:00.313Z,89.00
2023-03-04T17:58:29.320Z,89.10
2023-03-04T18:01:06.228Z,89.50
2023-03-04T18:03:34.284Z,89.60
2023-03-04T18:06:02.282Z,89.80
2023-03-04T18:08:30.357Z,90.10
2023-03-04T18:10:58.492Z,90.10
2023-03-04T18:13:26.500Z,90.20
2023-03-04T18:15:55.632Z,90.10
2023-03-04T18:18:23.711Z,90.20
2023-03-04T18:20:57.297Z,90.30
2023-03-04T18:23:25.323Z,90.50
2023-03-04T18:25:53.288Z,90.60
2023-03-04T18:28:21.327Z,90.90
2023-03-04T18:30:55.114Z,91.10
2023-03-04T18:33:23.144Z,91.10
2023-03-04T18:35:51.250Z,91.10
2023-03-04T18:38:19.228Z,91.20
2023-03-04T18:40:47.254Z,91.50
2023-03-04T18:43:15.251Z,91.50
2023-03-04T18:45:43.274Z,91.70
2023-03-04T18:48:11.267Z,91.70
2023-03-04T18:50:39.267Z,92.00
2023-03-04T18:53:07.237Z,92.20
2023-03-04T18:55:38.238Z,92.10
2023-03-04T18:58:06.377Z,92.60
2023-03-04T19:00:34.363Z,92.60
2023-03-04T19:03:10.657Z,92.70
2023-03-04T19:05:40.821Z,92.70
2023-03-04T19:08:08.827Z,92.80
2023-03-04T19:10:36.973Z,93.00
2023-03-04T19:13:05.760Z,92.70
2023-03-04T19:15:33.977Z,93.00
2023-03-04T19:18:02.194Z,93.70
2023-03-04T19:20:30.129Z,93.90
2023-03-04T19:22:58.277Z,93.80
2023-03-04T19:25:26.254Z,94.20
2023-03-04T19:27:55.704Z,94.10
2023-03-04T19:30:24.073Z,94.80
2023-03-04T19:32:52.138Z,94.80
2023-03-04T19:35:20.123Z,95.00
2023-03-04T19:37:48.160Z,95.00
2023-03-04T19:40:16.618Z,95.40
2023-03-04T19:42:44.568Z,95.50
2023-03-04T19:45:12.542Z,95.60
2023-03-04T19:47:40.520Z,96.00
2023-03-04T19:50:09.826Z,95.50
2023-03-04T19:52:38.162Z,95.50
2023-03-04T19:55:06.429Z,95.80
2023-03-04T19:57:34.715Z,96.30
2023-03-04T20:00:02.973Z,96.10
2023-03-04T20:02:32.603Z,96.60
2023-03-04T20:05:00.621Z,96.80
2023-03-04T20:07:28.614Z,97.00
2023-03-04T20:09:56.731Z,97.20
2023-03-04T20:12:24.945Z,97.60
2023-03-04T20:14:53.034Z,97.90
2023-03-04T20:17:21.092Z,98.40
2023-03-04T20:19:49.033Z,98.40
2023-03-04T20:22:17.013Z,98.60
2023-03-04T20:24:44.895Z,98.70
2023-03-04T20:27:16.085Z,98.90
2023-03-04T20:29:45.044Z,98.80
2023-03-04T20:32:13.111Z,99.00
2023-03-04T20:34:41.043Z,99.00
2023-03-04T20:37:09.016Z,99.10
2023-03-04T20:39:37.199Z,99.20
2023-03-04T20:42:06.980Z,99.50
2023-03-04T20:44:35.946Z,99.50
2023-03-04T20:47:04.071Z,99.90
2023-03-04T20:49:32.847Z,99.90
2023-03-04T20:52:06.828Z,99.90
2023-03-04T20:54:35.548Z,99.90
2023-03-04T20:57:07.220Z,99.90
2023-03-04T20:59:38.650Z,99.90
2023-03-04T21:02:07.832Z,99.90
2023-03-04T21:04:35.855Z,99.90
2023-03-04T21:07:06.972Z,99.90
2023-03-04T21:09:34.931Z,99.90
2023-03-04T21:12:02.915Z,99.90
2023-03-04T21:14:32.065Z,99.90
2023-03-04T21:17:01.153Z,99.90
2023-03-04T21:19:30.690Z,99.90
2023-03-04T21:21:59.510Z,99.90
2023-03-04T21:24:29.726Z,99.90
2023-03-04T21:26:58.218Z,99.90
2023-03-04T21:29:28.412Z,99.90
2023-03-04T21:32:13.025Z,99.90
2023-03-04T21:34:53.164Z,99.90
2023-03-04T21:37:22.264Z,99.90
2023-03-04T21:39:50.229Z,99.90
2023-03-04T21:42:18.566Z,99.90
2023-03-04T21:44:51.232Z,99.90
2023-03-04T21:47:21.137Z,99.90
2023-03-04T21:49:49.180Z,99.90
2023-03-04T21:52:21.593Z,99.90
2023-03-04T21:54:50.060Z,99.90
2023-03-04T21:57:18.133Z,99.90
2023-03-04T21:59:46.134Z,99.90
2023-03-04T22:02:15.904Z,99.90
2023-03-04T22:04:43.888Z,99.90
2023-03-04T22:07:12.196Z,99.90
2023-03-04T22:09:40.160Z,99.90
2023-03-04T22:12:08.171Z,99.90
2023-03-04T22:14:36.317Z,99.90
2023-03-04T22:17:04.352Z,99.90
2023-03-04T22:19:33.235Z,99.90
2023-03-04T22:22:01.228Z,99.90
2023-03-04T22:24:29.192Z,99.90
2023-03-04T22:26:57.998Z,99.90
2023-03-04T22:29:29.022Z,99.90
2023-03-04T22:31:57.112Z,99.90
2023-03-04T22:34:25.555Z,99.90
2023-03-04T22:36:53.527Z,99.90
2023-03-04T22:39:23.800Z,99.90
2023-03-04T22:41:51.904Z,99.90
2023-03-04T22:44:20.328Z,99.90
2023-03-04T22:46:48.303Z,99.90
2023-03-04T22:49:16.475Z,99.90
2023-03-04T22:51:45.107Z,99.90
2023-03-04T22:54:16.760Z,99.90
2023-03-04T22:56:45.264Z,99.90
2023-03-04T22:59:13.431Z,99.90
2023-03-04T23:01:41.477Z,99.90
2023-03-04T23:04:09.369Z,99.90
2023-03-04T23:06:37.966Z,99.90
2023-03-04T23:09:06.468Z,99.90
2023-03-04T23:11:39.757Z,99.90
2023-03-04T23:14:08.764Z,99.90
2023-03-04T23:16:39.601Z,99.90
2023-03-04T23:19:07.653Z,99.90
2023-03-04T23:21:36.358Z,99.90
2023-03-04T23:24:05.344Z,99.90
2023-03-04T23:26:34.616Z,99.90
2023-03-04T23:29:04.127Z,99.90
2023-03-04T23:31:32.539Z,99.90
2023-03-04T23:34:01.255Z,99.90
2023-03-04T23:36:30.603Z,99.90
2023-03-04T23:38:59.104Z,99.90
2023-03-04T23:41:28.957Z,99.90
2023-03-04T23:44:00.164Z,99.90
2023-03-04T23:46:29.055Z,99.90
2023-03-04T23:48:57.084Z,99.90
2023-03-04T23:51:26.022Z,99.90
2023-03-04T23:53:54.227Z,99.90
2023-03-04T23:56:24.283Z,99.90
2023-03-04T23:58:52.615Z,99.90
